Elakha — WCZ7501 — position and weather

sailwx.info

Track history (hours):
 
Tides and Currents Weather Stations Pressure Air Temp Water Temp Dewpoint Dewpoint Depression Visibility Wind Speed Wind Dir Waves Ship Positions

Oceanographic research ship Elakha (USA)

Detailed information on ship capabilities available from University of Delaware's Ocean Information Center.

Owner: OREGON, STATE OF, Newport, OR. More information available from US FCC via Universal Licensing System.

Last reported at 2017-Jun-15 00:20 UTC. Time now 2017-Jun-28 07:09 UTC.
Position N 44°37' W 124°06'.
Warning: this ship's position is 13 days out of date.

Length 16 m.

Type: . MMSI: 366838530.

Date/timePositionNaut miles runAvg speedWind from/ knotsBaromVisibWave heightAir tempDewpointWater temp
2017-Jun-15 00:20N 44°37' W 124°06'3 9.9
2017-Jun-14 23:59N 44°41' W 124°06'1 2.4
2017-Jun-14 23:25N 44°42' W 124°06'0 1.1
2017-Jun-14 23:00N 44°42' W 124°06'1 2.2
2017-Jun-14 22:30N 44°41' W 124°07'2 3.4
2017-Jun-14 21:58N 44°39' W 124°08'2 0.1
2017-Jun-13 17:18N 44°38' W 124°06'3 8.8
2017-Jun-13 17:00N 44°41' W 124°06'2 2.7
2017-Jun-13 16:09N 44°43' W 124°05'1 8.7
2017-Jun-13 16:00N 44°41' W 124°05'3 0.2
2017-Jun-13 01:09N 44°39' W 124°08'0 2.2
2017-Jun-13 01:00N 44°39' W 124°07'  
2017-Jun-07 22:34N 44°21' W 124°11'  
Track history (hours):
 
Tides and Currents Weather Stations Pressure Air Temp Water Temp Dewpoint Dewpoint Depression Visibility Wind Speed Wind Dir Waves Ship Positions

Oceanographic research ship Elakha (USA)

Detailed information on ship capabilities available from University of Delaware's Ocean Information Center.

Owner: OREGON, STATE OF, Newport, OR. More information available from US FCC via Universal Licensing System.

Last reported at 2017-Jun-15 00:20 UTC. Time now 2017-Jun-28 07:09 UTC.
Position N 44°37' W 124°06'.
Warning: this ship's position is 13 days out of date.

Length 16 m.

Type: . MMSI: 366838530.

Date/timePositionNaut miles runAvg speedWind from/ knotsBaromVisibWave heightAir tempDewpointWater temp
2017-Jun-15 00:20N 44°37' W 124°06'3 9.9
2017-Jun-14 23:59N 44°41' W 124°06'1 2.4
2017-Jun-14 23:25N 44°42' W 124°06'0 1.1
2017-Jun-14 23:00N 44°42' W 124°06'1 2.2
2017-Jun-14 22:30N 44°41' W 124°07'2 3.4
2017-Jun-14 21:58N 44°39' W 124°08'2 0.1
2017-Jun-13 17:18N 44°38' W 124°06'3 8.8
2017-Jun-13 17:00N 44°41' W 124°06'2 2.7
2017-Jun-13 16:09N 44°43' W 124°05'1 8.7
2017-Jun-13 16:00N 44°41' W 124°05'3 0.2
2017-Jun-13 01:09N 44°39' W 124°08'0 2.2
2017-Jun-13 01:00N 44°39' W 124°07'  
2017-Jun-07 22:34N 44°21' W 124°11'  

Dump ship's entire track history